createdAt,value
2023-04-23T00:01:14.342Z,29.4
2023-04-23T00:06:53.212Z,29.4
2023-04-23T00:12:45.133Z,29.3
2023-04-23T00:18:37.009Z,29.3
2023-04-23T00:24:27.518Z,29.3
2023-04-23T00:30:18.910Z,29.3
2023-04-23T00:36:10.428Z,29.3
2023-04-23T00:41:46.011Z,29.3
2023-04-23T00:47:38.226Z,29.3
2023-04-23T00:53:30.004Z,29.2
2023-04-23T00:59:20.782Z,29.2
2023-04-23T01:05:13.515Z,29.2
2023-04-23T01:11:04.574Z,29.1
2023-04-23T01:16:55.984Z,29.1
2023-04-23T01:22:31.863Z,29.1
2023-04-23T01:28:23.230Z,29.1
2023-04-23T01:34:15.146Z,29.1
2023-04-23T01:40:06.610Z,29.1
2023-04-23T01:45:58.190Z,29.1
2023-04-23T01:51:52.417Z,29
2023-04-23T01:57:42.894Z,29
2023-04-23T02:03:19.768Z,29
2023-04-23T02:09:12.177Z,29
2023-04-23T02:15:03.719Z,28.9
2023-04-23T02:20:56.164Z,28.9
2023-04-23T02:26:48.068Z,28.9
2023-04-23T02:32:39.661Z,28.9
2023-04-23T02:38:31.259Z,28.9
2023-04-23T02:44:22.447Z,28.9
2023-04-23T02:50:14.243Z,28.9
2023-04-23T02:56:05.527Z,28.9
2023-04-23T03:01:57.715Z,28.9
2023-04-23T03:07:50.630Z,28.8
2023-04-23T03:13:26.708Z,28.8
2023-04-23T03:19:18.697Z,28.8
2023-04-23T03:25:09.663Z,28.8
2023-04-23T03:31:02.708Z,28.8
2023-04-23T03:36:54.973Z,28.8
2023-04-23T03:42:46.119Z,28.8
2023-04-23T03:48:22.285Z,28.7
2023-04-23T03:53:58.871Z,28.7
2023-04-23T03:59:34.400Z,28.7
2023-04-23T04:05:28.899Z,28.7
2023-04-23T04:11:20.752Z,28.6
2023-04-23T04:17:12.247Z,28.6
2023-04-23T04:23:05.429Z,28.6
2023-04-23T04:28:56.622Z,28.6
2023-04-23T04:34:48.170Z,28.6
2023-04-23T04:40:40.046Z,28.6
2023-04-23T04:46:31.591Z,28.6
2023-04-23T04:52:23.578Z,28.6
2023-04-23T04:58:14.483Z,28.6
2023-04-23T05:03:51.822Z,28.6
2023-04-23T05:09:45.019Z,28.5
2023-04-23T05:15:37.257Z,28.5
2023-04-23T05:21:28.878Z,28.5
2023-04-23T05:27:20.766Z,28.5
2023-04-23T05:33:12.687Z,28.4
2023-04-23T05:39:10.456Z,28.4
2023-04-23T05:45:03.453Z,28.4
2023-04-23T05:50:56.106Z,28.4
2023-04-23T05:56:49.236Z,28.4
2023-04-23T06:02:41.592Z,28.4
2023-04-23T06:08:22.794Z,28.4
2023-04-23T06:14:16.535Z,28.4
2023-04-23T06:20:08.425Z,28.4
2023-04-23T06:25:59.488Z,39.6
2023-04-23T06:31:51.573Z,39.7
2023-04-23T06:37:53.932Z,38
2023-04-23T06:43:45.549Z,36.6
2023-04-23T06:49:37.562Z,39.8
2023-04-23T06:55:29.738Z,43.6
2023-04-23T07:01:22.825Z,44.7
2023-04-23T07:07:15.567Z,45.4
2023-04-23T07:13:06.693Z,46
2023-04-23T07:18:58.700Z,46.6
2023-04-23T07:24:49.785Z,47.1
2023-04-23T07:30:40.650Z,47.8
2023-04-23T07:36:33.138Z,48.3
2023-04-23T07:42:26.656Z,48.9
2023-04-23T07:48:18.799Z,49.5
2023-04-23T07:53:55.486Z,50.2
2023-04-23T07:59:49.327Z,50.8
2023-04-23T08:05:44.500Z,51.4
2023-04-23T08:11:36.071Z,52.1
2023-04-23T08:17:28.277Z,52.8
2023-04-23T08:23:34.679Z,53.5
2023-04-23T08:29:11.578Z,54
2023-04-23T08:35:19.215Z,54.4
2023-04-23T08:41:06.965Z,55.1
2023-04-23T08:46:44.165Z,55.9
2023-04-23T08:52:19.732Z,56.3
2023-04-23T08:57:56.244Z,57
2023-04-23T09:03:48.672Z,57.6
2023-04-23T09:09:26.458Z,58.2
2023-04-23T09:15:19.940Z,58.7
2023-04-23T09:26:46.924Z,58.3
2023-04-23T09:32:23.452Z,59.3
2023-04-23T09:38:15.266Z,59.8
2023-04-23T09:43:51.902Z,60.2
2023-04-23T09:49:28.641Z,60.5
2023-04-23T09:55:20.930Z,60.3
2023-04-23T10:01:36.120Z,59.9
2023-04-23T10:08:29.035Z,59.8
2023-04-23T10:15:07.002Z,59.8
2023-04-23T10:21:03.962Z,59.8
2023-04-23T10:33:55.705Z,59.7
2023-04-23T10:40:07.321Z,59.7
2023-04-23T10:46:09.498Z,59.8
2023-04-23T10:52:46.683Z,59.7
2023-04-23T10:58:22.418Z,59.7
2023-04-23T11:04:17.863Z,59.7
2023-04-23T11:10:17.515Z,59.6
2023-04-23T11:16:11.259Z,59.5
2023-04-23T11:21:49.792Z,59.4
2023-04-23T11:27:40.823Z,59.3
2023-04-23T11:33:42.494Z,59.2
2023-04-23T11:39:34.297Z,59.1
2023-04-23T11:45:10.507Z,59
2023-04-23T11:50:17.513Z,59
2023-04-23T11:56:09.293Z,58.9
2023-04-23T12:02:02.273Z,58.8
2023-04-23T12:08:05.037Z,58.7
2023-04-23T12:19:34.047Z,58.5
2023-04-23T12:25:25.677Z,58.3
2023-04-23T12:31:18.087Z,57.6
2023-04-23T12:37:10.113Z,56.8
2023-04-23T12:43:01.004Z,55.2
2023-04-23T12:48:53.416Z,52.1
2023-04-23T12:54:45.040Z,49.5
2023-04-23T13:00:36.830Z,47.4
2023-04-23T13:06:31.591Z,46
2023-04-23T13:12:07.865Z,44.9
2023-04-23T13:18:00.041Z,44.1
2023-04-23T13:23:54.539Z,43.3
2023-04-23T13:29:46.038Z,42.6
2023-04-23T13:35:07.016Z,41.9
2023-04-23T13:41:00.210Z,41.5
2023-04-23T13:47:05.017Z,40.9
2023-04-23T13:53:13.009Z,40.4
2023-04-23T13:58:49.726Z,40.2
2023-04-23T14:04:55.469Z,39.7
2023-04-23T14:10:32.663Z,39.3
2023-04-23T14:16:08.715Z,38.9
2023-04-23T14:21:49.153Z,38.6
2023-04-23T14:27:55.139Z,38.3
2023-04-23T14:33:47.237Z,37.8
2023-04-23T14:39:53.849Z,37.3
2023-04-23T14:45:57.072Z,37
2023-04-23T14:51:33.604Z,36.5
2023-04-23T14:57:25.064Z,35.9
2023-04-23T15:03:19.599Z,35.5
2023-04-23T15:09:11.889Z,35.2
2023-04-23T15:15:03.566Z,34.9
2023-04-23T15:21:06.900Z,34.7
2023-04-23T15:26:58.807Z,34.4
2023-04-23T15:32:35.645Z,34.3
2023-04-23T15:38:28.592Z,34.1
2023-04-23T15:44:19.753Z,34
2023-04-23T15:50:11.566Z,33.8
2023-04-23T15:56:03.785Z,33.8
2023-04-23T16:01:58.693Z,33.6
2023-04-23T16:08:07.775Z,33.5
2023-04-23T16:14:00.043Z,33.3
2023-04-23T16:19:52.995Z,33.2
2023-04-23T16:25:44.912Z,33.1
2023-04-23T16:31:57.019Z,32.9
2023-04-23T16:37:48.986Z,32.8
2023-04-23T16:43:40.478Z,32.5
2023-04-23T16:49:33.846Z,32.3
2023-04-23T16:55:26.993Z,32
2023-04-23T17:01:19.982Z,31.9
2023-04-23T17:07:14.882Z,31.8
2023-04-23T17:13:08.445Z,31.6
2023-04-23T17:18:46.002Z,31.5
2023-04-23T17:24:22.997Z,31.4
2023-04-23T17:30:15.983Z,31.3
2023-04-23T17:36:16.552Z,31.2
2023-04-23T17:42:09.527Z,31.1
2023-04-23T17:48:03.050Z,31.1
2023-04-23T17:54:00.329Z,31
2023-04-23T17:59:41.779Z,30.9
2023-04-23T18:05:39.782Z,30.6
2023-04-23T18:11:18.758Z,30.2
2023-04-23T18:16:56.847Z,29.9
2023-04-23T18:22:36.758Z,29.6
2023-04-23T18:27:59.325Z,29.3
2023-04-23T18:33:49.964Z,29.1
2023-04-23T18:39:31.694Z,29
2023-04-23T18:46:00.151Z,28.8
2023-04-23T18:51:38.788Z,27.8
2023-04-23T18:57:20.019Z,26.4
2023-04-23T19:03:40.118Z,25.4
2023-04-23T19:09:34.041Z,24.6
2023-04-23T19:14:56.414Z,24.1
2023-04-23T19:20:50.154Z,23.8
2023-04-23T19:26:28.217Z,23.5
2023-04-23T19:32:21.811Z,23.3
2023-04-23T19:37:59.540Z,23
2023-04-23T19:43:37.722Z,22.8
2023-04-23T19:49:16.052Z,22.7
2023-04-23T19:54:55.862Z,22.5
2023-04-23T20:00:49.182Z,22.4
2023-04-23T20:06:28.090Z,22.3
2023-04-23T20:12:05.174Z,22.2
2023-04-23T20:17:45.246Z,22.1
2023-04-23T20:23:08.353Z,22.1
2023-04-23T20:28:45.718Z,21.9
2023-04-23T20:34:22.713Z,21.9
2023-04-23T20:40:00.008Z,21.8
2023-04-23T20:45:51.119Z,21.8
2023-04-23T20:51:27.250Z,21.7
2023-04-23T20:57:03.402Z,21.6
2023-04-23T21:02:55.549Z,21.6
2023-04-23T21:08:48.812Z,21.5
2023-04-23T21:14:40.350Z,21.5
2023-04-23T21:20:32.613Z,21.5
2023-04-23T21:26:23.400Z,21.4
2023-04-23T21:32:17.751Z,21.4
2023-04-23T21:37:53.957Z,21.4
2023-04-23T21:43:45.201Z,21.4
2023-04-23T21:49:37.740Z,21.3
2023-04-23T21:55:29.403Z,21.3
2023-04-23T22:01:37.845Z,21.3
2023-04-23T22:07:49.659Z,21.3
2023-04-23T22:13:55.426Z,21.3
2023-04-23T22:20:00.287Z,21.3
2023-04-23T22:25:51.086Z,21.3
2023-04-23T22:31:26.454Z,21.2
2023-04-23T22:37:18.795Z,21.2
2023-04-23T22:43:11.985Z,21.2
2023-04-23T23:10:43.720Z,21.1
2023-04-23T23:16:35.168Z,21.1
2023-04-23T23:22:11.152Z,21.1
2023-04-23T23:28:02.091Z,21.1
2023-04-23T23:33:53.885Z,21.1
2023-04-23T23:39:45.222Z,21.1
2023-04-23T23:45:39.185Z,21
2023-04-23T23:51:16.099Z,21
2023-04-23T23:56:52.081Z,21
